Time;durP1;ratioP1;P1;durP2;ratioP2;P2;SDS_P1;SDS_P2;PMS_P1;PMS_P2;Temp;Humidity;BMP_temperature;BMP_pressure;BME280_temperature;BME280_humidity;BME280_pressure;Samples;Min_cycle;Max_cycle;Signal;HPM_P1;HPM_P2
2021/05/04 00:01:24;;;;;;;3.70;3.40;;;8.90;99.90;;;;;;468628;254;28428;-65
2021/05/04 00:03:26;;;;;;;4.60;3.27;;;8.90;99.90;;;;;;468636;254;28082;-65
2021/05/04 00:05:27;;;;;;;3.97;3.57;;;8.90;99.90;;;;;;468630;254;28235;-64
2021/05/04 00:07:28;;;;;;;3.93;3.53;;;8.80;99.90;;;;;;468648;254;28122;-64
2021/05/04 00:09:29;;;;;;;3.33;3.03;;;8.80;99.90;;;;;;468624;254;28108;-65
2021/05/04 00:11:30;;;;;;;4.70;3.10;;;8.90;99.90;;;;;;468645;254;28089;-65
2021/05/04 00:13:32;;;;;;;6.00;3.20;;;8.80;99.90;;;;;;468642;254;27548;-65
2021/05/04 00:15:33;;;;;;;3.67;3.37;;;8.80;99.90;;;;;;468668;254;27981;-64
2021/05/04 00:17:34;;;;;;;2.93;2.70;;;8.70;99.90;;;;;;468652;254;27891;-64
2021/05/04 00:19:37;;;;;;;3.30;3.07;;;8.70;99.90;;;;;;468638;254;27590;-64
2021/05/04 00:21:37;;;;;;;4.13;2.93;;;8.60;99.90;;;;;;468627;254;28009;-64
2021/05/04 00:23:38;;;;;;;3.27;2.50;;;8.60;99.90;;;;;;468631;254;27913;-66
2021/05/04 00:25:39;;;;;;;3.33;3.03;;;8.60;99.90;;;;;;468636;254;27994;-64
2021/05/04 00:27:40;;;;;;;5.03;3.10;;;8.60;99.90;;;;;;468647;254;28482;-64
2021/05/04 00:29:42;;;;;;;4.60;3.07;;;8.60;99.90;;;;;;468633;254;28480;-64
2021/05/04 00:31:43;;;;;;;3.80;2.83;;;8.70;99.90;;;;;;468638;254;28654;-65
2021/05/04 00:33:44;;;;;;;3.00;2.80;;;8.70;99.90;;;;;;468622;254;28464;-66
2021/05/04 00:35:45;;;;;;;3.20;2.90;;;8.60;99.90;;;;;;468645;254;28335;-64
2021/05/04 00:37:47;;;;;;;3.20;2.90;;;8.60;99.90;;;;;;468641;254;28011;-65
2021/05/04 00:39:48;;;;;;;3.27;2.97;;;8.50;99.90;;;;;;468644;254;28105;-65
2021/05/04 00:41:49;;;;;;;3.83;3.53;;;8.60;99.90;;;;;;468638;254;28025;-64
2021/05/04 00:43:51;;;;;;;3.30;2.70;;;8.60;99.90;;;;;;468654;254;27752;-66
2021/05/04 00:45:52;;;;;;;5.00;3.70;;;8.60;99.90;;;;;;470186;252;28114;-64
2021/05/04 00:47:53;;;;;;;5.03;3.10;;;8.60;99.90;;;;;;472179;252;27904;-65
2021/05/04 00:49:54;;;;;;;4.00;3.60;;;8.60;99.90;;;;;;472164;252;27880;-64
2021/05/04 00:51:55;;;;;;;3.97;3.00;;;8.70;99.90;;;;;;472168;252;27559;-64
2021/05/04 00:53:57;;;;;;;3.30;3.00;;;8.60;99.90;;;;;;472161;252;27575;-64
2021/05/04 00:55:58;;;;;;;3.23;2.93;;;8.60;99.90;;;;;;472175;252;27912;-65
2021/05/04 00:57:59;;;;;;;3.20;2.90;;;8.50;99.90;;;;;;472163;252;28116;-64
2021/05/04 01:00:00;;;;;;;3.10;2.90;;;8.50;99.90;;;;;;472149;252;27878;-64
2021/05/04 01:02:02;;;;;;;2.83;2.63;;;8.50;99.90;;;;;;472164;252;27920;-64
2021/05/04 01:04:03;;;;;;;4.13;3.20;;;8.50;99.90;;;;;;472169;252;28188;-64
2021/05/04 01:06:04;;;;;;;4.87;3.30;;;8.60;99.90;;;;;;472167;252;28445;-64
2021/05/04 01:08:05;;;;;;;3.40;3.10;;;8.60;99.90;;;;;;472153;252;28393;-65
2021/05/04 01:10:07;;;;;;;3.47;3.17;;;8.60;99.90;;;;;;472161;252;28385;-64
2021/05/04 01:12:08;;;;;;;3.53;3.23;;;8.60;99.90;;;;;;472154;252;28385;-65
2021/05/04 01:14:09;;;;;;;3.77;3.37;;;8.60;99.90;;;;;;472152;252;28400;-64
2021/05/04 01:16:10;;;;;;;5.20;3.27;;;8.50;99.90;;;;;;472152;252;27908;-64
2021/05/04 01:18:12;;;;;;;5.33;3.40;;;8.50;99.90;;;;;;472168;252;27928;-64
2021/05/04 01:20:13;;;;;;;4.70;2.90;;;8.50;99.90;;;;;;472167;252;27536;-64
2021/05/04 01:22:14;;;;;;;4.13;3.70;;;8.50;99.90;;;;;;472154;252;27894;-65
2021/05/04 01:24:15;;;;;;;4.80;3.03;;;8.50;99.90;;;;;;472147;252;27902;-64
2021/05/04 01:26:17;;;;;;;7.10;3.53;;;8.50;99.90;;;;;;472168;252;27909;-65
2021/05/04 01:28:18;;;;;;;3.57;3.27;;;8.50;99.90;;;;;;472163;252;27929;-66
2021/05/04 01:30:19;;;;;;;4.00;3.60;;;8.60;99.90;;;;;;472168;252;28127;-64
2021/05/04 01:32:20;;;;;;;4.07;3.60;;;8.60;99.90;;;;;;472191;251;27604;-64
2021/05/04 01:34:22;;;;;;;3.63;3.33;;;8.60;99.90;;;;;;472150;252;27925;-64
2021/05/04 01:36:23;;;;;;;3.67;3.13;;;8.60;99.90;;;;;;472153;252;27810;-64
2021/05/04 01:38:24;;;;;;;4.00;3.40;;;8.70;99.90;;;;;;472162;252;27539;-66
2021/05/04 01:40:25;;;;;;;3.50;3.17;;;8.60;99.90;;;;;;472160;252;27907;-64
2021/05/04 01:42:27;;;;;;;3.43;3.07;;;8.60;99.90;;;;;;472153;252;27930;-65
2021/05/04 01:44:28;;;;;;;3.77;3.33;;;8.60;99.90;;;;;;472164;252;28441;-64
2021/05/04 01:46:32;;;;;;;5.53;3.80;;;8.70;99.90;;;;;;472157;252;28292;-65
2021/05/04 01:48:30;;;;;;;4.90;3.67;;;8.70;99.90;;;;;;472181;251;28132;-64
2021/05/04 01:50:32;;;;;;;3.73;3.43;;;8.60;99.90;;;;;;472173;252;28010;-64
2021/05/04 01:52:33;;;;;;;4.30;3.90;;;8.70;99.90;;;;;;472179;252;28601;-65
2021/05/04 01:54:34;;;;;;;5.17;3.97;;;8.70;99.90;;;;;;472194;252;28115;-64
2021/05/04 01:56:35;;;;;;;3.63;3.33;;;8.70;99.90;;;;;;472191;252;27972;-65
2021/05/04 01:58:37;;;;;;;4.07;3.67;;;8.70;99.90;;;;;;472190;252;27555;-64
2021/05/04 02:00:38;;;;;;;4.57;4.03;;;8.70;99.90;;;;;;472177;252;28038;-65
2021/05/04 02:02:39;;;;;;;3.43;3.13;;;8.80;99.90;;;;;;472013;241;27627;-64
2021/05/04 02:04:40;;;;;;;4.10;3.70;;;8.80;99.90;;;;;;473649;250;27917;-64
2021/05/04 02:06:42;;;;;;;3.87;3.47;;;8.80;99.90;;;;;;473645;250;27629;-65
2021/05/04 02:08:43;;;;;;;3.97;3.67;;;8.80;99.90;;;;;;473650;250;27513;-64
2021/05/04 02:10:44;;;;;;;4.60;3.57;;;8.80;99.90;;;;;;473647;250;27874;-64
2021/05/04 02:12:45;;;;;;;3.80;3.40;;;8.80;99.90;;;;;;473634;251;28071;-65
2021/05/04 02:14:47;;;;;;;3.50;3.20;;;8.80;99.90;;;;;;473633;250;28645;-64
2021/05/04 02:16:48;;;;;;;5.40;3.60;;;8.80;99.90;;;;;;473653;250;28306;-64
2021/05/04 02:18:49;;;;;;;4.53;3.57;;;8.90;99.90;;;;;;473635;250;28287;-64
2021/05/04 02:20:50;;;;;;;3.70;3.40;;;8.90;99.90;;;;;;473642;250;27968;-65
2021/05/04 02:22:52;;;;;;;4.77;3.73;;;8.90;99.90;;;;;;473648;250;28202;-65
2021/05/04 02:24:53;;;;;;;4.30;3.73;;;8.90;99.90;;;;;;473640;250;27501;-64
2021/05/04 02:26:54;;;;;;;4.30;3.60;;;8.90;99.90;;;;;;473656;250;27494;-64
2021/05/04 02:28:55;;;;;;;4.67;3.80;;;8.80;99.90;;;;;;473648;250;27641;-64
2021/05/04 02:30:57;;;;;;;4.93;3.90;;;8.90;99.90;;;;;;473645;250;27883;-64
2021/05/04 02:32:58;;;;;;;5.17;3.63;;;8.90;99.90;;;;;;473643;250;27401;-66
2021/05/04 02:34:59;;;;;;;5.10;3.43;;;8.80;99.90;;;;;;473635;250;27936;-64
2021/05/04 02:37:00;;;;;;;4.60;3.90;;;8.80;99.90;;;;;;473641;250;27840;-65
2021/05/04 02:39:03;;;;;;;3.97;3.63;;;8.80;99.90;;;;;;473645;250;27957;-65
2021/05/04 02:41:03;;;;;;;4.00;3.60;;;8.80;99.90;;;;;;473637;250;27875;-65
2021/05/04 02:43:04;;;;;;;4.23;3.83;;;8.90;99.90;;;;;;473637;250;28050;-66
2021/05/04 02:45:05;;;;;;;4.57;3.80;;;8.80;99.90;;;;;;473640;250;27829;-64
2021/05/04 02:47:07;;;;;;;4.90;3.70;;;8.80;99.90;;;;;;473654;250;27964;-66
2021/05/04 02:49:08;;;;;;;5.10;4.30;;;8.80;99.90;;;;;;473646;250;28067;-65
2021/05/04 02:51:09;;;;;;;5.20;4.00;;;8.80;99.90;;;;;;473638;250;28012;-65
2021/05/04 02:53:10;;;;;;;4.90;3.97;;;8.80;99.90;;;;;;473651;250;27840;-64
2021/05/04 02:55:14;;;;;;;5.27;4.20;;;8.80;99.90;;;;;;473633;250;28170;-65
2021/05/04 02:57:13;;;;;;;6.60;4.50;;;8.90;99.90;;;;;;473654;250;28163;-64
2021/05/04 02:59:14;;;;;;;10.40;4.90;;;8.90;99.90;;;;;;473647;250;28290;-64
2021/05/04 03:01:15;;;;;;;5.20;4.20;;;8.90;99.90;;;;;;473630;250;27983;-65
2021/05/04 03:03:17;;;;;;;6.70;4.70;;;9.10;99.90;;;;;;474365;247;27857;-64
2021/05/04 03:05:18;;;;;;;4.17;3.77;;;9.20;99.90;;;;;;481819;246;27811;-65
2021/05/04 03:07:19;;;;;;;4.40;3.93;;;9.20;99.90;;;;;;481830;246;28069;-65
2021/05/04 03:09:20;;;;;;;5.73;4.43;;;9.20;99.90;;;;;;481831;246;27980;-65
2021/05/04 03:11:22;;;;;;;6.37;4.20;;;9.20;99.90;;;;;;481834;246;27959;-66
2021/05/04 03:13:23;;;;;;;7.23;4.40;;;9.10;99.90;;;;;;481834;246;28418;-64
2021/05/04 03:15:24;;;;;;;4.20;3.80;;;9.10;99.90;;;;;;481820;246;28170;-64
2021/05/04 03:17:25;;;;;;;5.93;4.10;;;9.10;99.90;;;;;;481830;246;28040;-66
2021/05/04 03:19:27;;;;;;;5.73;4.00;;;9.10;99.90;;;;;;481812;246;27952;-65
2021/05/04 03:21:29;;;;;;;5.17;4.50;;;9.10;99.90;;;;;;481821;246;28141;-64
2021/05/04 03:23:29;;;;;;;5.03;4.20;;;9.20;99.90;;;;;;481808;246;27937;-64
2021/05/04 03:25:30;;;;;;;5.67;4.43;;;9.30;99.90;;;;;;481842;246;27837;-64
2021/05/04 03:27:32;;;;;;;4.00;3.60;;;9.40;99.90;;;;;;481827;246;28550;-65
2021/05/04 03:29:33;;;;;;;4.53;3.90;;;9.40;99.90;;;;;;481830;246;28495;-65
2021/05/04 03:31:34;;;;;;;4.47;3.80;;;9.50;99.90;;;;;;481832;246;28501;-65
2021/05/04 03:33:35;;;;;;;7.87;4.13;;;9.50;99.90;;;;;;481827;246;28422;-65
2021/05/04 03:35:37;;;;;;;4.33;3.90;;;9.50;99.90;;;;;;481824;246;28335;-64
2021/05/04 03:37:38;;;;;;;5.50;3.90;;;9.60;99.90;;;;;;481837;246;27955;-67
2021/05/04 03:39:39;;;;;;;4.53;3.67;;;9.60;99.90;;;;;;481820;246;28152;-65
2021/05/04 03:41:40;;;;;;;4.00;3.60;;;9.60;99.90;;;;;;481832;246;27989;-65
2021/05/04 03:43:42;;;;;;;4.93;3.70;;;9.60;99.90;;;;;;481822;246;27734;-64
2021/05/04 03:45:43;;;;;;;5.13;3.50;;;9.60;99.90;;;;;;481826;246;27718;-65
2021/05/04 03:47:44;;;;;;;4.73;3.60;;;9.50;99.90;;;;;;481812;246;28030;-66
2021/05/04 03:49:45;;;;;;;4.80;3.50;;;9.60;99.90;;;;;;481805;246;27817;-64
2021/05/04 03:51:47;;;;;;;5.57;4.33;;;9.90;99.90;;;;;;481839;246;27958;-65
2021/05/04 03:53:48;;;;;;;7.80;3.50;;;9.90;99.90;;;;;;481834;246;28083;-65
2021/05/04 03:55:49;;;;;;;4.63;3.80;;;9.90;99.90;;;;;;481808;246;27975;-64
2021/05/04 03:57:50;;;;;;;4.10;3.70;;;9.90;99.90;;;;;;481819;246;28242;-64
2021/05/04 03:59:52;;;;;;;17.77;4.63;;;9.80;99.90;;;;;;481818;246;28115;-64
2021/05/04 04:01:53;;;;;;;6.20;3.37;;;9.90;99.90;;;;;;481830;246;27848;-64
2021/05/04 04:03:54;;;;;;;5.03;3.80;;;10.00;99.90;;;;;;481811;246;28424;-64
2021/05/04 04:05:56;;;;;;;3.93;3.53;;;9.90;99.90;;;;;;483053;246;28380;-64
2021/05/04 04:07:57;;;;;;;7.70;3.30;;;9.90;99.90;;;;;;483140;245;28306;-64
2021/05/04 04:09:58;;;;;;;13.03;3.37;;;9.90;99.90;;;;;;483127;245;28869;-64
2021/05/04 04:11:59;;;;;;;3.67;3.30;;;9.90;99.90;;;;;;483110;245;28079;-65
2021/05/04 04:14:00;;;;;;;6.23;3.60;;;10.00;99.90;;;;;;483118;245;27930;-64
2021/05/04 04:16:02;;;;;;;5.17;3.53;;;10.10;99.90;;;;;;483113;245;28045;-64
2021/05/04 04:18:03;;;;;;;7.23;3.67;;;10.00;99.90;;;;;;483130;246;28398;-64
2021/05/04 04:20:04;;;;;;;6.17;3.30;;;10.10;99.90;;;;;;483129;245;28070;-64
2021/05/04 04:22:05;;;;;;;4.50;3.53;;;10.10;99.90;;;;;;483120;245;27961;-64
2021/05/04 04:24:07;;;;;;;3.83;3.40;;;10.10;99.90;;;;;;483109;245;27891;-64
2021/05/04 04:26:08;;;;;;;3.60;3.20;;;10.10;99.90;;;;;;483122;246;27976;-64
2021/05/04 04:28:09;;;;;;;3.10;2.80;;;10.10;99.90;;;;;;483115;246;27844;-64
2021/05/04 04:30:10;;;;;;;4.63;3.10;;;10.10;99.90;;;;;;483164;245;28428;-64
2021/05/04 04:32:12;;;;;;;3.73;3.20;;;10.10;99.90;;;;;;483119;245;28192;-65
2021/05/04 04:34:13;;;;;;;3.60;3.17;;;10.10;99.90;;;;;;483121;245;28516;-64
2021/05/04 04:36:14;;;;;;;3.73;3.20;;;10.20;99.90;;;;;;483111;246;28518;-64
2021/05/04 04:38:15;;;;;;;4.90;3.20;;;10.10;99.90;;;;;;483120;245;28044;-64
2021/05/04 04:40:17;;;;;;;3.77;3.00;;;10.20;99.90;;;;;;483130;245;27905;-64
2021/05/04 04:42:18;;;;;;;4.03;3.00;;;10.20;99.90;;;;;;483116;246;27834;-66
2021/05/04 04:44:19;;;;;;;5.70;2.73;;;10.20;99.90;;;;;;483115;245;27975;-64
2021/05/04 04:46:20;;;;;;;9.77;3.40;;;10.20;99.90;;;;;;483129;245;27963;-65
2021/05/04 04:48:22;;;;;;;3.17;2.87;;;10.20;99.90;;;;;;483107;245;27972;-64
2021/05/04 04:50:23;;;;;;;6.80;2.93;;;10.20;99.90;;;;;;483122;245;28056;-64
2021/05/04 04:52:24;;;;;;;3.43;3.13;;;10.20;99.90;;;;;;483108;245;28276;-66
2021/05/04 04:54:25;;;;;;;3.50;2.90;;;10.30;99.90;;;;;;483157;245;28000;-64
2021/05/04 04:56:27;;;;;;;3.73;2.73;;;10.30;99.90;;;;;;483105;245;28399;-65
2021/05/04 04:58:28;;;;;;;4.57;2.70;;;10.20;99.90;;;;;;483108;245;28661;-65
2021/05/04 05:00:29;;;;;;;3.90;2.80;;;10.20;99.90;;;;;;483131;245;28672;-64
2021/05/04 05:02:30;;;;;;;4.40;2.70;;;10.30;99.90;;;;;;483101;245;28212;-66
2021/05/04 05:04:32;;;;;;;5.97;2.90;;;10.30;99.90;;;;;;483104;245;28156;-65
2021/05/04 05:06:33;;;;;;;7.10;3.10;;;10.30;99.90;;;;;;483134;245;27880;-66
2021/05/04 05:08:34;;;;;;;4.50;2.47;;;10.30;99.90;;;;;;483108;246;28288;-65
2021/05/04 05:10:35;;;;;;;2.80;2.47;;;10.40;99.90;;;;;;483118;246;27972;-65
2021/05/04 05:12:37;;;;;;;3.00;2.40;;;10.30;99.90;;;;;;483149;245;28124;-66
2021/05/04 05:14:39;;;;;;;4.23;2.57;;;10.40;99.90;;;;;;483112;245;28093;-65
2021/05/04 05:16:39;;;;;;;7.63;2.60;;;10.30;99.90;;;;;;483103;245;28388;-66
2021/05/04 05:18:40;;;;;;;2.90;2.60;;;10.40;99.90;;;;;;483101;245;28456;-64
2021/05/04 05:20:42;;;;;;;4.50;2.77;;;10.40;99.90;;;;;;483104;245;28499;-65
2021/05/04 05:22:43;;;;;;;2.90;2.53;;;10.40;99.90;;;;;;483118;245;28458;-66
2021/05/04 05:24:44;;;;;;;3.37;2.60;;;10.40;99.90;;;;;;483115;246;28016;-65
2021/05/04 05:26:45;;;;;;;4.83;2.70;;;10.40;99.90;;;;;;483107;245;28089;-65
2021/05/04 05:28:47;;;;;;;4.57;2.20;;;10.40;99.90;;;;;;483100;245;28077;-65
2021/05/04 05:30:48;;;;;;;4.80;2.30;;;10.40;99.90;;;;;;483098;246;28181;-65
2021/05/04 05:32:49;;;;;;;11.93;2.67;;;10.50;99.90;;;;;;483109;246;28199;-65
2021/05/04 05:34:50;;;;;;;3.00;2.60;;;10.50;99.90;;;;;;483108;245;28072;-65
2021/05/04 05:36:52;;;;;;;2.50;2.20;;;10.50;99.90;;;;;;483112;245;28290;-66
2021/05/04 05:38:53;;;;;;;4.93;2.40;;;10.50;99.90;;;;;;483100;245;28086;-65
2021/05/04 05:40:54;;;;;;;4.40;2.50;;;10.50;99.90;;;;;;483110;245;28208;-65
2021/05/04 05:42:55;;;;;;;3.80;2.20;;;10.50;99.90;;;;;;483105;245;28609;-65
2021/05/04 05:44:57;;;;;;;4.20;2.23;;;10.50;99.70;;;;;;483100;245;28721;-65
2021/05/04 05:46:58;;;;;;;2.60;2.37;;;10.50;99.90;;;;;;483112;246;28605;-66
2021/05/04 05:48:59;;;;;;;4.63;2.30;;;10.50;99.90;;;;;;483113;245;28319;-65
2021/05/04 05:51:00;;;;;;;2.80;2.50;;;10.50;99.90;;;;;;483103;246;28268;-65
2021/05/04 05:53:02;;;;;;;4.47;2.50;;;10.50;99.60;;;;;;483099;245;28465;-65
2021/05/04 05:55:03;;;;;;;2.40;2.20;;;10.50;99.70;;;;;;483106;245;28389;-65
2021/05/04 05:57:04;;;;;;;2.37;2.20;;;10.50;99.80;;;;;;483098;246;28149;-66
2021/05/04 05:59:05;;;;;;;5.30;2.83;;;10.60;99.50;;;;;;483109;245;28063;-65
2021/05/04 06:01:07;;;;;;;8.63;3.27;;;10.60;99.60;;;;;;483104;245;28436;-65
2021/05/04 06:03:08;;;;;;;2.13;2.03;;;10.70;99.60;;;;;;483113;246;28496;-64
2021/05/04 06:05:09;;;;;;;2.53;2.33;;;10.70;99.40;;;;;;483122;246;28414;-66
2021/05/04 06:07:10;;;;;;;2.40;2.20;;;10.80;98.90;;;;;;483096;245;28382;-66
2021/05/04 06:09:13;;;;;;;3.07;2.53;;;;;;;;;;483102;245;28651;-65
2021/05/04 06:11:14;;;;;;;2.70;2.47;;;10.80;99.20;;;;;;483111;245;27153;-65
2021/05/04 06:13:15;;;;;;;6.00;2.47;;;10.90;99.10;;;;;;483109;245;28064;-65
2021/05/04 06:15:17;;;;;;;7.97;2.67;;;11.00;99.30;;;;;;483108;245;28479;-66
2021/05/04 06:17:18;;;;;;;2.67;2.47;;;11.00;99.60;;;;;;483092;245;28533;-65
2021/05/04 06:19:19;;;;;;;2.33;2.13;;;11.00;99.70;;;;;;483110;245;28979;-65
2021/05/04 06:21:20;;;;;;;5.63;2.27;;;11.00;98.90;;;;;;483107;245;28781;-65
2021/05/04 06:23:22;;;;;;;3.40;2.40;;;11.00;99.10;;;;;;483111;246;28965;-65
2021/05/04 06:25:23;;;;;;;3.23;2.50;;;11.10;99.40;;;;;;483103;245;28060;-66
2021/05/04 06:27:24;;;;;;;5.17;2.70;;;11.20;99.20;;;;;;483103;245;28147;-65
2021/05/04 06:29:26;;;;;;;3.80;2.60;;;11.20;98.90;;;;;;483107;245;28336;-65
2021/05/04 06:31:27;;;;;;;6.60;2.67;;;11.30;99.00;;;;;;483105;245;28376;-64
2021/05/04 06:33:28;;;;;;;3.17;2.20;;;11.30;98.20;;;;;;483093;245;28319;-65
2021/05/04 06:35:30;;;;;;;3.07;1.80;;;;;;;;;;483106;245;28344;-65
2021/05/04 06:37:32;;;;;;;5.10;2.10;;;11.20;98.80;;;;;;483105;246;27494;-65
2021/05/04 06:39:33;;;;;;;4.17;2.37;;;11.30;98.60;;;;;;483135;245;28321;-65
2021/05/04 06:41:37;;;;;;;2.27;2.07;;;11.40;98.20;;;;;;483139;245;28234;-64
2021/05/04 06:43:38;;;;;;;3.70;2.57;;;11.50;98.40;;;;;;483112;245;28654;-65
2021/05/04 06:45:39;;;;;;;3.50;2.23;;;11.50;98.10;;;;;;483117;245;28987;-65
2021/05/04 06:47:41;;;;;;;4.57;2.50;;;11.60;98.70;;;;;;483122;245;28669;-64
2021/05/04 06:49:44;;;;;;;8.40;2.50;;;11.50;97.50;;;;;;483142;245;28183;-66
2021/05/04 06:51:43;;;;;;;3.70;2.10;;;11.50;97.40;;;;;;483111;245;28295;-65
2021/05/04 06:53:44;;;;;;;5.40;2.10;;;11.50;98.20;;;;;;483115;245;28298;-66
2021/05/04 06:55:48;;;;;;;4.43;2.30;;;11.50;97.70;;;;;;483128;245;28348;-64
2021/05/04 06:57:47;;;;;;;2.77;2.40;;;11.40;97.30;;;;;;483170;243;28380;-64
2021/05/04 06:59:48;;;;;;;3.43;2.27;;;11.40;97.80;;;;;;483123;245;28330;-65
2021/05/04 07:01:49;;;;;;;4.43;2.23;;;11.30;98.50;;;;;;483110;245;28383;-64
2021/05/04 07:03:52;;;;;;;2.40;2.20;;;11.30;98.90;;;;;;483126;245;28416;-65
2021/05/04 07:05:52;;;;;;;6.23;2.37;;;11.20;99.90;;;;;;483107;245;28279;-64
2021/05/04 07:07:53;;;;;;;3.03;2.30;;;10.90;99.90;;;;;;483102;245;28595;-65
2021/05/04 07:09:54;;;;;;;4.20;3.10;;;10.50;99.90;;;;;;483114;245;28726;-65
2021/05/04 07:11:56;;;;;;;6.50;2.50;;;10.40;99.90;;;;;;483102;245;28859;-65
2021/05/04 07:13:57;;;;;;;2.47;2.30;;;10.40;99.90;;;;;;483127;245;28053;-64
2021/05/04 07:15:58;;;;;;;2.30;2.10;;;10.40;99.90;;;;;;483120;245;28284;-64
2021/05/04 07:18:01;;;;;;;4.70;2.63;;;;;;;;;;483103;245;28658;-65
2021/05/04 07:20:03;;;;;;;2.40;2.20;;;;;;;;;;483110;245;27605;-65
2021/05/04 07:22:07;;;;;;;2.30;2.10;;;10.40;99.90;;;;;;483125;245;26608;-64
2021/05/04 07:24:05;;;;;;;5.53;2.10;;;10.50;99.90;;;;;;483121;245;28335;-64
2021/05/04 07:26:07;;;;;;;2.77;2.40;;;10.50;99.90;;;;;;483121;245;28325;-66
2021/05/04 07:28:08;;;;;;;2.50;2.27;;;10.40;99.90;;;;;;483114;246;28428;-64
2021/05/04 07:30:09;;;;;;;2.30;2.10;;;10.40;99.90;;;;;;483107;246;28555;-65
2021/05/04 07:32:10;;;;;;;3.20;2.23;;;10.30;99.90;;;;;;483121;245;28423;-64
2021/05/04 07:34:12;;;;;;;2.20;2.10;;;10.40;99.90;;;;;;483113;246;28846;-64
2021/05/04 07:36:13;;;;;;;3.33;2.50;;;10.40;99.90;;;;;;483113;245;28859;-65
2021/05/04 07:38:14;;;;;;;2.83;2.33;;;10.30;99.90;;;;;;483116;245;28819;-64
2021/05/04 07:40:15;;;;;;;2.50;2.30;;;10.40;99.90;;;;;;483112;245;29100;-64
2021/05/04 07:42:17;;;;;;;3.03;2.83;;;10.40;99.90;;;;;;483114;246;28039;-64
2021/05/04 07:44:19;;;;;;;2.97;2.70;;;10.40;99.90;;;;;;483107;246;28412;-65
2021/05/04 07:46:19;;;;;;;3.10;2.70;;;10.20;99.90;;;;;;483106;246;28324;-65
2021/05/04 07:48:23;;;;;;;4.03;2.53;;;10.30;99.90;;;;;;483119;245;28051;-64
2021/05/04 07:50:22;;;;;;;2.63;2.43;;;10.10;99.90;;;;;;483118;245;28172;-65
2021/05/04 07:52:23;;;;;;;4.80;2.70;;;10.10;99.90;;;;;;483113;245;28058;-64
2021/05/04 07:54:24;;;;;;;2.60;2.40;;;10.00;99.90;;;;;;483131;245;28231;-65
2021/05/04 07:56:25;;;;;;;7.10;2.70;;;10.00;99.90;;;;;;483118;245;28304;-64
2021/05/04 07:58:27;;;;;;;2.53;2.43;;;9.90;99.90;;;;;;483113;245;28972;-64
2021/05/04 08:00:28;;;;;;;2.80;2.50;;;10.00;99.90;;;;;;483115;245;28698;-65
2021/05/04 08:02:29;;;;;;;5.13;2.77;;;9.90;99.90;;;;;;483135;245;29017;-64
2021/05/04 08:04:30;;;;;;;6.67;2.50;;;9.80;99.90;;;;;;483125;246;28534;-64
2021/05/04 08:06:32;;;;;;;3.93;3.00;;;9.90;99.90;;;;;;483124;245;28891;-64
2021/05/04 08:08:33;;;;;;;3.17;2.40;;;10.00;99.90;;;;;;483118;245;27964;-64
2021/05/04 08:10:34;;;;;;;3.80;2.43;;;10.10;99.90;;;;;;483134;245;28077;-66
2021/05/04 08:12:36;;;;;;;6.77;3.00;;;10.20;99.90;;;;;;483120;246;28053;-64
2021/05/04 08:14:37;;;;;;;6.00;2.40;;;10.10;99.90;;;;;;483122;245;28173;-64
2021/05/04 08:16:38;;;;;;;2.60;2.40;;;9.90;99.90;;;;;;483112;245;28504;-64
2021/05/04 08:18:41;;;;;;;4.70;2.57;;;9.90;99.90;;;;;;483103;245;28470;-64
2021/05/04 08:20:47;;;;;;;4.10;2.80;;;;;;;;;;483128;245;28435;-64
2021/05/04 08:22:43;;;;;;;5.60;2.40;;;9.70;99.90;;;;;;482797;245;27070;-64
2021/05/04 08:24:44;;;;;;;2.70;2.50;;;9.70;99.90;;;;;;483118;245;28174;-64
2021/05/04 08:26:45;;;;;;;3.40;2.80;;;9.70;99.90;;;;;;483128;246;28296;-64
2021/05/04 08:28:48;;;;;;;2.80;2.60;;;9.60;99.90;;;;;;483116;245;28174;-65
2021/05/04 08:30:50;;;;;;;2.80;2.60;;;9.70;99.90;;;;;;483110;245;28217;-64
2021/05/04 08:32:49;;;;;;;5.50;2.70;;;9.70;99.90;;;;;;483118;245;28029;-65
2021/05/04 08:34:50;;;;;;;3.10;2.90;;;9.60;99.90;;;;;;483113;245;27965;-64
2021/05/04 08:36:52;;;;;;;2.70;2.57;;;9.50;99.90;;;;;;483111;245;28244;-64
2021/05/04 08:38:53;;;;;;;4.20;2.97;;;9.50;99.90;;;;;;483118;245;28412;-64
2021/05/04 08:40:54;;;;;;;2.90;2.70;;;9.40;99.90;;;;;;483115;245;28293;-64
2021/05/04 08:42:55;;;;;;;4.03;2.97;;;9.60;99.90;;;;;;483100;245;28489;-65
2021/05/04 08:44:57;;;;;;;4.70;3.20;;;9.70;99.90;;;;;;483118;245;28394;-64
2021/05/04 08:46:58;;;;;;;3.50;3.20;;;9.60;99.90;;;;;;483112;245;28052;-64
2021/05/04 08:48:59;;;;;;;5.83;3.00;;;9.50;99.90;;;;;;483104;246;28981;-67
2021/05/04 08:51:00;;;;;;;3.63;3.33;;;9.50;99.90;;;;;;483104;246;28682;-64
2021/05/04 08:53:02;;;;;;;3.90;3.13;;;9.50;99.90;;;;;;483121;245;28516;-66
2021/05/04 08:55:03;;;;;;;3.33;3.03;;;9.50;99.90;;;;;;483113;245;28842;-64
2021/05/04 08:57:04;;;;;;;7.60;3.50;;;9.60;99.90;;;;;;483090;245;28882;-65
2021/05/04 08:59:05;;;;;;;3.50;3.20;;;9.40;99.90;;;;;;483128;245;28037;-64
2021/05/04 09:01:07;;;;;;;4.43;3.40;;;9.40;99.90;;;;;;483120;245;28309;-64
2021/05/04 09:03:12;;;;;;;4.90;3.23;;;9.40;99.90;;;;;;483095;245;28135;-65
2021/05/04 09:05:09;;;;;;;3.50;3.20;;;9.50;99.90;;;;;;483114;245;28246;-64
2021/05/04 09:07:10;;;;;;;4.93;3.50;;;9.60;99.90;;;;;;483106;245;28180;-65
2021/05/04 09:09:20;;;;;;;6.53;3.40;;;9.50;99.90;;;;;;483082;246;28301;-64
2021/05/04 09:11:16;;;;;;;5.03;3.10;;;9.30;99.90;;;;;;483110;245;28885;-64
2021/05/04 09:13:22;;;;;;;5.37;3.47;;;9.10;99.90;;;;;;483103;245;28431;-65
2021/05/04 09:15:18;;;;;;;6.77;4.10;;;9.10;99.90;;;;;;483114;245;28575;-65
2021/05/04 09:17:24;;;;;;;4.27;3.70;;;9.10;99.90;;;;;;483103;245;28750;-64
2021/05/04 09:19:35;;;;;;;4.10;3.70;;;9.20;99.90;;;;;;483111;245;28677;-65
2021/05/04 09:21:22;;;;;;;3.70;3.40;;;9.20;99.90;;;;;;483196;245;28728;-64
2021/05/04 09:23:23;;;;;;;3.80;3.50;;;9.20;99.90;;;;;;483093;245;28273;-65
2021/05/04 09:25:25;;;;;;;4.20;3.80;;;9.00;99.90;;;;;;483115;246;28171;-66
2021/05/04 09:27:26;;;;;;;6.00;3.43;;;9.00;99.90;;;;;;483096;245;28198;-65
2021/05/04 09:29:27;;;;;;;4.03;3.60;;;9.20;99.90;;;;;;483099;246;27880;-65
2021/05/04 09:31:28;;;;;;;4.10;3.50;;;8.90;99.90;;;;;;483105;245;28297;-64
2021/05/04 09:33:30;;;;;;;4.23;3.83;;;9.00;99.90;;;;;;483109;245;28125;-64
2021/05/04 09:35:31;;;;;;;4.60;4.20;;;9.10;99.90;;;;;;483109;245;28230;-65
2021/05/04 09:37:32;;;;;;;6.77;3.37;;;9.20;99.90;;;;;;483095;245;28088;-65
2021/05/04 09:39:34;;;;;;;5.30;3.70;;;9.10;99.90;;;;;;483094;245;28513;-65
2021/05/04 09:41:35;;;;;;;3.83;3.53;;;9.10;99.90;;;;;;483096;245;28381;-65
2021/05/04 09:43:36;;;;;;;5.10;3.90;;;8.90;99.90;;;;;;483089;246;28325;-65
2021/05/04 09:45:37;;;;;;;3.93;3.63;;;8.80;99.90;;;;;;483101;245;28189;-65
2021/05/04 09:47:38;;;;;;;4.60;3.70;;;8.90;99.90;;;;;;483106;245;28448;-64
2021/05/04 09:49:41;;;;;;;3.83;3.43;;;;;;;;;;483112;245;28571;-64
2021/05/04 09:51:44;;;;;;;6.03;3.87;;;8.80;99.90;;;;;;483107;245;27308;-65
2021/05/04 09:53:49;;;;;;;3.60;3.20;;;8.90;99.90;;;;;;483105;245;28053;-66
2021/05/04 09:55:47;;;;;;;4.30;3.90;;;9.00;99.90;;;;;;483121;245;28065;-66
2021/05/04 09:57:52;;;;;;;4.47;3.83;;;9.10;99.90;;;;;;483105;245;27969;-64
2021/05/04 09:59:53;;;;;;;3.60;3.17;;;9.00;99.90;;;;;;483092;245;28073;-65
2021/05/04 10:01:54;;;;;;;3.37;3.10;;;8.90;99.90;;;;;;483110;245;28213;-66
2021/05/04 10:03:55;;;;;;;4.10;3.70;;;9.00;99.90;;;;;;483114;245;28064;-65
2021/05/04 10:05:56;;;;;;;3.80;3.50;;;9.10;99.90;;;;;;483119;246;28212;-65
2021/05/04 10:07:58;;;;;;;4.60;4.03;;;9.10;99.90;;;;;;483111;245;28219;-66
2021/05/04 10:09:59;;;;;;;4.23;3.77;;;8.90;99.90;;;;;;483091;245;27949;-65
2021/05/04 10:12:00;;;;;;;3.43;3.13;;;9.00;99.90;;;;;;483115;245;28102;-65
2021/05/04 10:14:01;;;;;;;4.47;4.07;;;8.80;99.90;;;;;;483177;245;28087;-65
2021/05/04 10:16:03;;;;;;;7.00;3.40;;;8.80;99.90;;;;;;483123;245;27987;-65
2021/05/04 10:18:04;;;;;;;4.00;3.70;;;8.90;99.90;;;;;;483111;245;28718;-64
2021/05/04 10:20:05;;;;;;;4.33;3.37;;;9.00;99.90;;;;;;483123;245;27936;-65
2021/05/04 10:22:06;;;;;;;3.70;3.37;;;9.10;99.90;;;;;;483118;246;27973;-65
2021/05/04 10:24:08;;;;;;;4.60;3.60;;;9.10;99.90;;;;;;483123;245;28420;-64
2021/05/04 10:26:17;;;;;;;4.20;3.80;;;9.40;99.90;;;;;;483114;246;28414;-65
2021/05/04 10:28:13;;;;;;;4.20;3.90;;;9.50;99.90;;;;;;483203;243;28186;-65
2021/05/04 10:30:14;;;;;;;3.77;3.47;;;9.50;99.90;;;;;;483146;245;28073;-65
2021/05/04 10:32:16;;;;;;;4.30;3.10;;;9.60;99.90;;;;;;483148;245;28270;-65
2021/05/04 10:34:17;;;;;;;3.90;3.60;;;9.40;99.90;;;;;;483129;245;28256;-65
2021/05/04 10:36:18;;;;;;;3.50;3.20;;;9.30;99.90;;;;;;483127;245;28151;-64
2021/05/04 10:38:19;;;;;;;3.90;3.60;;;9.20;99.90;;;;;;483122;245;28103;-65